Time;durP1;ratioP1;P1;durP2;ratioP2;P2;SDS_P1;SDS_P2;PMS_P1;PMS_P2;Temp;Humidity;BMP_temperature;BMP_pressure;BME280_temperature;BME280_humidity;BME280_pressure;Samples;Min_cycle;Max_cycle;Signal;HPM_P1;HPM_P2
2023/03/11 00:00:31;;;;;;;3.25;2.10;;;9.90;99.90;;;;;;4999580;28;20513;-81
2023/03/11 00:03:00;;;;;;;1.73;1.60;;;9.70;99.90;;;;;;5020055;28;20628;-81
2023/03/11 00:05:32;;;;;;;2.92;1.83;;;9.80;99.90;;;;;;5019933;28;20247;-82
2023/03/11 00:08:00;;;;;;;2.47;1.50;;;9.90;99.90;;;;;;5002585;28;20205;-82
2023/03/11 00:10:42;;;;;;;5.68;2.28;;;10.00;99.90;;;;;;5019705;28;20200;-82
2023/03/11 00:13:12;;;;;;;2.80;1.95;;;10.00;99.90;;;;;;5019131;28;20209;-81
2023/03/11 00:15:41;;;;;;;3.72;2.00;;;9.90;99.90;;;;;;5018596;28;20204;-80
2023/03/11 00:18:08;;;;;;;3.92;2.08;;;9.80;99.90;;;;;;5019526;28;20205;-81
2023/03/11 00:20:38;;;;;;;2.47;2.22;;;9.80;99.90;;;;;;5019328;28;20205;-81
2023/03/11 00:23:06;;;;;;;2.22;1.70;;;9.90;99.90;;;;;;5002378;28;20228;-81
2023/03/11 00:25:36;;;;;;;2.10;1.90;;;9.90;99.90;;;;;;5024416;28;20201;-80
2023/03/11 00:28:04;;;;;;;1.90;1.60;;;9.80;99.90;;;;;;5024752;28;20205;-81
2023/03/11 00:30:31;;;;;;;1.63;1.52;;;9.80;99.90;;;;;;5029254;28;20213;-81
2023/03/11 00:32:59;;;;;;;1.75;1.10;;;9.70;99.90;;;;;;5023728;28;20215;-84
2023/03/11 00:35:28;;;;;;;1.40;1.25;;;9.70;99.90;;;;;;5021071;28;20509;-85
2023/03/11 00:37:58;;;;;;;2.13;1.75;;;9.60;99.90;;;;;;5015611;28;20555;-81
2023/03/11 00:40:30;;;;;;;2.53;1.52;;;9.50;99.90;;;;;;5019172;28;20300;-81
2023/03/11 00:42:57;;;;;;;1.50;1.20;;;9.50;99.90;;;;;;5018836;28;20257;-82
2023/03/11 00:45:25;;;;;;;1.85;1.55;;;9.50;99.90;;;;;;5007004;28;20208;-84
2023/03/11 00:47:53;;;;;;;1.80;1.35;;;9.50;99.90;;;;;;5018907;28;20500;-82
2023/03/11 00:50:27;;;;;;;2.33;1.10;;;9.50;99.90;;;;;;5019372;28;20259;-83
2023/03/11 00:52:54;;;;;;;1.45;1.20;;;9.60;99.90;;;;;;5018604;28;20205;-82
2023/03/11 00:55:25;;;;;;;1.55;1.05;;;9.20;99.90;;;;;;5018742;28;20231;-81
2023/03/11 00:57:57;;;;;;;1.45;1.17;;;9.10;99.90;;;;;;5025474;28;20590;-81
2023/03/11 01:00:26;;;;;;;1.05;1.02;;;9.20;99.90;;;;;;5018464;28;20239;-81
2023/03/11 01:02:53;;;;;;;1.30;1.20;;;9.20;99.90;;;;;;5019480;28;20263;-82
2023/03/11 01:05:26;;;;;;;0.93;0.90;;;9.10;99.90;;;;;;5019558;28;20563;-80
2023/03/11 01:07:53;;;;;;;1.30;0.80;;;9.00;99.90;;;;;;5017763;28;20250;-83
2023/03/11 01:10:20;;;;;;;0.85;0.80;;;9.10;99.90;;;;;;5017664;28;20208;-82
2023/03/11 01:12:47;;;;;;;1.00;0.90;;;9.10;99.90;;;;;;5022540;28;20482;-80
2023/03/11 01:15:35;;;;;;;1.52;1.02;;;9.00;99.90;;;;;;5025741;28;20401;-81
2023/03/11 01:18:03;;;;;;;1.10;0.90;;;8.90;99.90;;;;;;5001052;28;20261;-81
2023/03/11 01:20:30;;;;;;;1.20;1.10;;;9.00;99.90;;;;;;5003470;28;20540;-82
2023/03/11 01:22:58;;;;;;;1.40;1.05;;;9.00;99.90;;;;;;5019435;28;20908;-81
2023/03/11 01:25:25;;;;;;;0.80;0.80;;;8.80;99.90;;;;;;5019205;28;20219;-83
2023/03/11 01:27:52;;;;;;;1.50;1.38;;;8.80;99.90;;;;;;5019735;28;20380;-81
2023/03/11 01:30:22;;;;;;;1.33;1.23;;;8.60;99.90;;;;;;5017898;28;20221;-83
2023/03/11 01:32:49;;;;;;;1.17;1.08;;;8.60;99.90;;;;;;5020846;28;20210;-82
2023/03/11 01:35:20;;;;;;;1.33;0.95;;;8.60;99.90;;;;;;5000273;28;20236;-81
2023/03/11 01:37:47;;;;;;;1.27;1.17;;;8.50;99.90;;;;;;5017346;28;20201;-82
2023/03/11 01:40:25;;;;;;;1.13;1.00;;;8.40;99.90;;;;;;5017915;28;20263;-81
2023/03/11 01:42:52;;;;;;;1.42;1.33;;;8.30;99.90;;;;;;5020199;28;20201;-83
2023/03/11 01:45:46;;;;;;;1.48;1.13;;;8.20;99.90;;;;;;5023731;28;20239;-80
2023/03/11 01:48:13;;;;;;;1.38;1.27;;;8.20;99.90;;;;;;5017427;28;20311;-80
2023/03/11 01:50:43;;;;;;;1.55;1.25;;;8.10;99.90;;;;;;5025225;28;20200;-81
2023/03/11 01:53:11;;;;;;;1.63;1.20;;;8.10;99.90;;;;;;5022949;28;20211;-83
2023/03/11 01:55:38;;;;;;;1.17;1.08;;;8.10;99.90;;;;;;5001033;28;20221;-82
2023/03/11 01:58:09;;;;;;;1.33;1.23;;;8.00;99.90;;;;;;5016862;28;20470;-81
2023/03/11 02:00:38;;;;;;;1.48;1.38;;;8.00;99.90;;;;;;5013767;28;20232;-80
2023/03/11 02:03:14;;;;;;;1.85;1.40;;;7.90;99.90;;;;;;5018146;28;20214;-82
2023/03/11 02:05:44;;;;;;;1.83;1.73;;;8.00;99.90;;;;;;5015820;28;20351;-82
2023/03/11 02:08:10;;;;;;;0.80;0.80;;;8.10;99.90;;;;;;5017731;28;20205;-82
2023/03/11 02:10:41;;;;;;;1.02;1.02;;;8.00;99.90;;;;;;5000143;28;20252;-83
2023/03/11 02:13:09;;;;;;;1.75;1.40;;;8.00;99.90;;;;;;5017940;28;20252;-84
2023/03/11 02:15:39;;;;;;;1.30;1.20;;;8.00;99.90;;;;;;5022791;28;20209;-83
2023/03/11 02:18:07;;;;;;;0.88;0.85;;;8.00;99.90;;;;;;5012146;28;20218;-84
2023/03/11 02:20:53;;;;;;;1.15;1.08;;;8.10;99.90;;;;;;5018652;28;20228;-83
2023/03/11 02:23:26;;;;;;;2.33;0.93;;;8.00;99.90;;;;;;5011265;28;20482;-81
2023/03/11 02:26:25;;;;;;;1.20;1.10;;;8.00;99.90;;;;;;5000702;28;20217;-83
2023/03/11 02:28:53;;;;;;;1.52;1.00;;;8.00;99.90;;;;;;5009488;28;20242;-83
2023/03/11 02:31:21;;;;;;;1.20;1.13;;;7.90;99.90;;;;;;5021059;28;20382;-82
2023/03/11 02:33:53;;;;;;;1.30;1.20;;;8.00;99.90;;;;;;5017495;28;20239;-83
2023/03/11 02:36:40;;;;;;;1.10;1.00;;;8.10;99.90;;;;;;5003194;28;20209;-82
2023/03/11 02:39:08;;;;;;;1.00;1.00;;;8.20;99.90;;;;;;4999436;28;20611;-83
2023/03/11 02:41:43;;;;;;;0.90;0.90;;;8.00;99.90;;;;;;5019904;28;20204;-83
2023/03/11 02:44:17;;;;;;;1.10;1.10;;;8.10;99.90;;;;;;5017949;28;20203;-83
2023/03/11 02:46:45;;;;;;;0.77;0.77;;;8.00;99.90;;;;;;5000713;28;20197;-84
2023/03/11 02:49:13;;;;;;;1.02;0.93;;;8.00;99.90;;;;;;5017497;28;20278;-83
2023/03/11 02:51:40;;;;;;;0.90;0.80;;;8.00;99.90;;;;;;5017451;28;20219;-81
2023/03/11 02:54:07;;;;;;;1.17;1.08;;;8.00;99.90;;;;;;5016005;28;20399;-82
2023/03/11 02:56:34;;;;;;;2.45;1.10;;;8.00;99.90;;;;;;5017073;28;20205;-83
2023/03/11 02:59:01;;;;;;;1.05;0.95;;;8.20;99.90;;;;;;5016628;28;20775;-81
2023/03/11 03:01:28;;;;;;;0.85;0.85;;;8.00;99.90;;;;;;5003152;28;20275;-82
2023/03/11 03:03:55;;;;;;;1.20;1.10;;;7.90;99.90;;;;;;5019011;28;20206;-83
2023/03/11 03:06:23;;;;;;;2.10;1.17;;;7.90;99.90;;;;;;5020192;28;20210;-83
2023/03/11 03:08:50;;;;;;;0.57;0.57;;;7.70;99.90;;;;;;4999065;28;20214;-82
2023/03/11 03:11:17;;;;;;;0.60;0.60;;;7.20;99.90;;;;;;5002145;28;20545;-80
2023/03/11 03:13:46;;;;;;;0.88;0.75;;;6.60;99.90;;;;;;4999757;28;20211;-80
2023/03/11 03:16:13;;;;;;;0.80;0.77;;;6.20;99.90;;;;;;5010632;28;20207;-79
2023/03/11 03:18:42;;;;;;;0.75;0.75;;;5.80;99.90;;;;;;4999332;28;20236;-79
2023/03/11 03:21:10;;;;;;;1.42;1.33;;;5.60;99.90;;;;;;5016700;28;20247;-80
2023/03/11 03:23:36;;;;;;;0.90;0.80;;;5.50;99.90;;;;;;5021091;28;20212;-82
2023/03/11 03:26:04;;;;;;;2.38;0.95;;;5.40;99.90;;;;;;5030336;28;20185;-81
2023/03/11 03:28:32;;;;;;;0.60;0.60;;;5.50;99.90;;;;;;5030846;28;20200;-81
2023/03/11 03:31:06;;;;;;;0.65;0.65;;;5.30;99.90;;;;;;5030548;28;20198;-81
2023/03/11 03:33:33;;;;;;;0.57;0.50;;;5.20;99.90;;;;;;5026317;28;20212;-79
2023/03/11 03:36:04;;;;;;;0.60;0.60;;;5.20;99.90;;;;;;5017755;28;20202;-79
2023/03/11 03:38:31;;;;;;;1.23;0.80;;;5.10;99.90;;;;;;5017600;28;20280;-80
2023/03/11 03:40:58;;;;;;;0.70;0.70;;;5.20;99.90;;;;;;5016375;28;20283;-81
2023/03/11 03:43:25;;;;;;;0.43;0.43;;;5.00;99.90;;;;;;5020382;28;20240;-80
2023/03/11 03:46:00;;;;;;;0.65;0.50;;;5.00;99.90;;;;;;5014162;28;20213;-81
2023/03/11 03:48:27;;;;;;;0.47;0.47;;;4.90;99.90;;;;;;5014935;28;20254;-81
2023/03/11 03:50:54;;;;;;;0.45;0.45;;;4.90;99.90;;;;;;5022062;28;20232;-79
2023/03/11 03:53:21;;;;;;;0.65;0.50;;;4.80;99.90;;;;;;5002062;28;20216;-82
2023/03/11 03:55:49;;;;;;;0.98;0.63;;;4.70;99.90;;;;;;5002933;28;20523;-80
2023/03/11 03:58:16;;;;;;;0.50;0.50;;;4.80;99.90;;;;;;5013835;28;20209;-81
2023/03/11 04:00:43;;;;;;;0.50;0.50;;;4.60;99.90;;;;;;5019403;28;20558;-82
2023/03/11 04:03:10;;;;;;;0.45;0.40;;;4.60;99.90;;;;;;5001779;28;20201;-83
2023/03/11 04:05:37;;;;;;;0.50;0.50;;;4.60;99.90;;;;;;5019769;28;20204;-82
2023/03/11 04:08:04;;;;;;;0.50;0.50;;;4.60;99.90;;;;;;5019705;28;20209;-82
2023/03/11 04:10:31;;;;;;;0.50;0.40;;;4.50;99.90;;;;;;5019476;28;20208;-82
2023/03/11 04:12:58;;;;;;;0.40;0.40;;;4.40;99.90;;;;;;5020947;28;20197;-84
2023/03/11 04:15:25;;;;;;;0.73;0.40;;;4.40;99.90;;;;;;5019481;28;20276;-81
2023/03/11 04:17:52;;;;;;;0.70;0.50;;;4.20;99.90;;;;;;5019990;28;20212;-82
2023/03/11 04:20:19;;;;;;;1.00;0.75;;;4.20;99.90;;;;;;5013014;28;20266;-83
2023/03/11 04:22:48;;;;;;;0.65;0.50;;;4.10;99.90;;;;;;5019763;28;20238;-81
2023/03/11 04:25:15;;;;;;;1.08;0.47;;;4.10;99.90;;;;;;5018994;28;20517;-82
2023/03/11 04:27:44;;;;;;;0.50;0.50;;;4.10;99.90;;;;;;5019356;28;20249;-82
2023/03/11 04:30:12;;;;;;;0.63;0.60;;;4.10;99.90;;;;;;5010968;28;20241;-83
2023/03/11 04:32:39;;;;;;;0.40;0.40;;;4.00;99.90;;;;;;5018625;28;20212;-83
2023/03/11 04:35:06;;;;;;;0.40;0.40;;;3.90;99.90;;;;;;5019239;28;20216;-84
2023/03/11 04:37:34;;;;;;;0.47;0.40;;;3.90;99.90;;;;;;5018805;28;20263;-85
2023/03/11 04:40:01;;;;;;;1.80;0.90;;;4.00;99.90;;;;;;5018620;28;20293;-81
2023/03/11 04:42:28;;;;;;;1.48;1.30;;;3.70;99.90;;;;;;5019232;28;20614;-81
2023/03/11 04:44:55;;;;;;;1.13;0.77;;;3.70;99.90;;;;;;5018762;28;20266;-82
2023/03/11 04:47:22;;;;;;;0.70;0.70;;;3.60;99.90;;;;;;4993460;28;20401;-81
2023/03/11 04:49:49;;;;;;;0.70;0.60;;;3.50;99.90;;;;;;5018859;28;20204;-82
2023/03/11 04:52:16;;;;;;;0.80;0.80;;;3.50;99.90;;;;;;5018840;28;20204;-82
2023/03/11 04:54:43;;;;;;;0.73;0.70;;;3.40;99.90;;;;;;5020282;28;20396;-84
2023/03/11 04:57:10;;;;;;;0.63;0.63;;;3.30;99.90;;;;;;5000167;28;20211;-85
2023/03/11 04:59:37;;;;;;;0.75;0.75;;;3.30;99.90;;;;;;5019268;28;20235;-82
2023/03/11 05:02:03;;;;;;;0.80;0.80;;;3.10;99.90;;;;;;5016730;28;20199;-83
2023/03/11 05:04:31;;;;;;;0.93;0.85;;;3.20;99.90;;;;;;5002044;28;20211;-84
2023/03/11 05:06:57;;;;;;;0.80;0.75;;;3.00;99.90;;;;;;5019406;28;20207;-86
2023/03/11 05:09:25;;;;;;;0.65;0.50;;;2.90;99.90;;;;;;5018823;28;20340;-82
2023/03/11 05:11:52;;;;;;;0.73;0.73;;;2.90;99.90;;;;;;5017506;28;20208;-84
2023/03/11 05:14:19;;;;;;;1.60;1.10;;;2.90;99.90;;;;;;5022706;28;20215;-83
2023/03/11 05:16:45;;;;;;;2.58;2.08;;;3.00;99.90;;;;;;5026190;28;20264;-85
2023/03/11 05:19:34;;;;;;;0.73;0.73;;;2.80;99.90;;;;;;5022734;28;20203;-81
2023/03/11 05:22:01;;;;;;;0.70;0.70;;;2.70;99.90;;;;;;5019296;28;20245;-85
2023/03/11 05:24:29;;;;;;;1.40;1.30;;;2.80;99.90;;;;;;5018792;28;20364;-84
2023/03/11 05:26:56;;;;;;;1.77;1.25;;;2.70;99.90;;;;;;5006144;28;20299;-85
2023/03/11 05:29:24;;;;;;;0.80;0.80;;;2.70;99.90;;;;;;5001057;28;20214;-86
2023/03/11 05:31:51;;;;;;;1.90;1.00;;;2.70;99.90;;;;;;5004881;28;20451;-83
2023/03/11 05:34:18;;;;;;;0.80;0.80;;;2.70;99.90;;;;;;5013605;28;20211;-83
2023/03/11 05:36:45;;;;;;;1.10;1.10;;;2.70;99.90;;;;;;5019610;28;20197;-83
2023/03/11 05:39:12;;;;;;;0.93;0.80;;;2.70;99.90;;;;;;5019449;28;20223;-83
2023/03/11 05:41:39;;;;;;;1.13;1.10;;;2.70;99.90;;;;;;5024591;28;20243;-84
2023/03/11 05:44:07;;;;;;;1.50;1.40;;;2.70;99.90;;;;;;5025362;28;20203;-85
2023/03/11 05:46:34;;;;;;;0.90;0.90;;;2.70;99.90;;;;;;5024299;28;20411;-84
2023/03/11 05:49:01;;;;;;;1.10;1.00;;;2.60;99.90;;;;;;5018917;28;20254;-82
2023/03/11 05:51:28;;;;;;;1.35;1.25;;;2.60;99.90;;;;;;5013399;28;20257;-86
2023/03/11 05:53:55;;;;;;;1.15;1.10;;;2.70;99.90;;;;;;5019198;28;20218;-84
2023/03/11 05:56:22;;;;;;;1.30;1.15;;;2.60;99.90;;;;;;5020242;28;20501;-84
2023/03/11 05:58:49;;;;;;;2.25;1.80;;;2.50;99.90;;;;;;5020066;28;20200;-85
2023/03/11 06:01:18;;;;;;;2.22;2.03;;;2.50;99.90;;;;;;5019583;28;20273;-85
2023/03/11 06:03:45;;;;;;;1.95;1.85;;;2.40;99.90;;;;;;5003782;28;20212;-80
2023/03/11 06:06:13;;;;;;;3.22;1.95;;;2.40;99.90;;;;;;5022817;28;20207;-83
2023/03/11 06:08:44;;;;;;;2.50;2.30;;;2.40;99.90;;;;;;5011712;28;20483;-82
2023/03/11 06:11:12;;;;;;;2.60;2.40;;;2.40;99.90;;;;;;5024053;28;20212;-84
2023/03/11 06:13:39;;;;;;;3.20;2.90;;;2.40;99.90;;;;;;5017836;28;20210;-86
2023/03/11 06:16:07;;;;;;;2.70;2.60;;;2.20;99.90;;;;;;5018793;28;20210;-84
2023/03/11 06:18:35;;;;;;;2.75;2.55;;;2.20;99.90;;;;;;4997199;28;20203;-84
2023/03/11 06:21:02;;;;;;;2.70;2.50;;;2.20;99.90;;;;;;5006902;28;20234;-84
2023/03/11 06:23:30;;;;;;;2.90;2.65;;;2.10;99.90;;;;;;5012841;28;20503;-84
2023/03/11 06:25:59;;;;;;;3.08;2.88;;;2.10;99.90;;;;;;5021365;28;20234;-84
2023/03/11 06:28:27;;;;;;;4.32;3.92;;;2.20;99.90;;;;;;5009397;28;20249;-85
2023/03/11 06:30:58;;;;;;;3.60;3.30;;;2.20;99.90;;;;;;5000314;28;20229;-83
2023/03/11 06:33:26;;;;;;;3.55;3.25;;;2.00;99.90;;;;;;5005989;28;20202;-86
2023/03/11 06:36:00;;;;;;;3.60;3.25;;;2.00;99.90;;;;;;5025619;28;20212;-86
2023/03/11 06:38:27;;;;;;;3.47;3.22;;;1.90;99.90;;;;;;5022906;28;20243;-86
2023/03/11 06:41:02;;;;;;;3.85;3.55;;;2.10;99.90;;;;;;5026427;28;20221;-83
2023/03/11 06:43:30;;;;;;;3.05;2.83;;;1.90;99.90;;;;;;5004382;28;20209;-86
2023/03/11 06:45:58;;;;;;;4.70;4.20;;;1.90;99.90;;;;;;5013289;28;20215;-83
2023/03/11 06:48:27;;;;;;;4.95;4.55;;;1.90;99.90;;;;;;5024675;28;20210;-87
2023/03/11 06:50:58;;;;;;;3.63;3.33;;;2.00;99.90;;;;;;5024847;28;20211;-86
2023/03/11 06:53:27;;;;;;;3.58;3.28;;;1.90;99.90;;;;;;5022136;28;20244;-83
2023/03/11 06:56:05;;;;;;;3.45;3.22;;;1.90;99.90;;;;;;5011595;28;20213;-83
2023/03/11 06:58:34;;;;;;;4.30;3.95;;;1.90;99.90;;;;;;5020608;28;20496;-86
2023/03/11 07:01:11;;;;;;;3.78;3.47;;;1.90;99.90;;;;;;5024962;28;20239;-85
2023/03/11 07:03:39;;;;;;;4.32;3.95;;;2.00;99.90;;;;;;5018784;28;20220;-84
2023/03/11 07:06:14;;;;;;;4.70;4.10;;;2.00;99.90;;;;;;5013984;28;20218;-85
2023/03/11 07:08:42;;;;;;;5.38;3.47;;;2.00;99.90;;;;;;5027135;28;20218;-85
2023/03/11 07:11:13;;;;;;;3.30;3.00;;;2.00;99.90;;;;;;5029833;28;20223;-82
2023/03/11 07:13:40;;;;;;;3.22;2.92;;;1.90;99.90;;;;;;5025577;28;20228;-82
2023/03/11 07:16:14;;;;;;;3.80;3.45;;;2.00;99.90;;;;;;5018551;28;20213;-84
2023/03/11 07:18:42;;;;;;;3.78;3.38;;;2.00;99.90;;;;;;5020460;28;20206;-86
2023/03/11 07:21:12;;;;;;;3.65;3.35;;;2.00;99.90;;;;;;5021452;28;20221;-84
2023/03/11 07:23:40;;;;;;;4.75;3.50;;;1.90;99.90;;;;;;5023422;28;20273;-86
2023/03/11 07:26:09;;;;;;;4.45;3.10;;;1.90;99.90;;;;;;5030778;28;20436;-82
2023/03/11 07:28:37;;;;;;;3.65;3.33;;;1.90;99.90;;;;;;5011057;28;20236;-88
2023/03/11 07:31:12;;;;;;;3.97;3.58;;;1.80;99.90;;;;;;5023843;28;20260;-82
2023/03/11 07:33:39;;;;;;;3.28;2.80;;;1.80;99.90;;;;;;5017489;28;20462;-84
2023/03/11 07:36:09;;;;;;;3.47;3.13;;;1.80;99.90;;;;;;5024019;28;20206;-86
2023/03/11 07:38:37;;;;;;;4.82;4.30;;;1.80;99.90;;;;;;5023677;28;20264;-87
2023/03/11 07:41:05;;;;;;;6.47;3.47;;;1.80;99.90;;;;;;5002118;28;20240;-84
2023/03/11 07:43:32;;;;;;;4.35;3.95;;;1.80;99.90;;;;;;4997712;28;20251;-85
2023/03/11 07:46:11;;;;;;;8.85;4.15;;;1.80;99.90;;;;;;5023154;28;20210;-83
2023/03/11 07:48:39;;;;;;;5.85;5.25;;;1.80;99.90;;;;;;5008176;28;20220;-85
2023/03/11 07:51:16;;;;;;;5.05;4.35;;;1.70;99.90;;;;;;5026972;28;20205;-86
2023/03/11 07:53:44;;;;;;;3.85;3.55;;;1.60;99.90;;;;;;5017378;28;20190;-86
2023/03/11 07:56:12;;;;;;;4.35;3.95;;;1.70;99.90;;;;;;5016879;28;20494;-84
2023/03/11 07:58:40;;;;;;;5.68;5.18;;;1.70;99.90;;;;;;5026892;28;20205;-85
2023/03/11 08:01:16;;;;;;;4.53;4.13;;;1.70;99.90;;;;;;5026815;28;20228;-86
2023/03/11 08:03:45;;;;;;;5.55;5.05;;;1.80;99.90;;;;;;5034144;28;20239;-84
2023/03/11 08:06:22;;;;;;;4.30;3.90;;;1.80;99.90;;;;;;5034262;28;20204;-82
2023/03/11 08:08:50;;;;;;;4.55;4.18;;;1.80;99.90;;;;;;5034029;28;20185;-82
2023/03/11 08:11:19;;;;;;;5.78;4.75;;;1.80;99.90;;;;;;5034629;28;20212;-83
2023/03/11 08:13:47;;;;;;;4.35;3.95;;;1.90;99.90;;;;;;5025501;28;20560;-82
2023/03/11 08:16:16;;;;;;;5.15;4.70;;;1.90;99.90;;;;;;5025514;28;20513;-84
2023/03/11 08:18:45;;;;;;;4.10;3.70;;;1.90;99.90;;;;;;5018671;28;20226;-84
2023/03/11 08:21:15;;;;;;;5.05;4.30;;;1.90;99.90;;;;;;5019160;28;20237;-86
2023/03/11 08:23:44;;;;;;;3.80;3.47;;;1.90;99.90;;;;;;5022120;28;20210;-87
2023/03/11 08:26:14;;;;;;;4.35;3.92;;;1.90;99.90;;;;;;5012358;28;20194;-84
2023/03/11 08:28:42;;;;;;;4.82;4.20;;;1.90;99.90;;;;;;5028816;28;20200;-88
2023/03/11 08:31:18;;;;;;;4.82;4.35;;;1.90;99.90;;;;;;5024825;28;20556;-87
2023/03/11 08:33:48;;;;;;;5.00;4.20;;;2.00;99.90;;;;;;5029514;28;20250;-85
2023/03/11 08:36:16;;;;;;;4.07;3.67;;;3.20;99.90;;;;;;5023361;28;20430;-87
2023/03/11 08:38:45;;;;;;;4.82;4.22;;;2.00;99.90;;;;;;5013470;28;20453;-88
2023/03/11 08:41:13;;;;;;;3.97;3.63;;;2.10;99.90;;;;;;5031729;28;20271;-88
2023/03/11 08:43:41;;;;;;;4.95;4.13;;;2.00;99.90;;;;;;5030408;28;20212;-87
2023/03/11 08:46:35;;;;;;;5.88;4.15;;;2.00;99.90;;;;;;5027115;28;20199;-84
2023/03/11 08:49:04;;;;;;;3.53;3.28;;;2.00;99.90;;;;;;5008338;28;20256;-88
2023/03/11 08:51:33;;;;;;;3.60;3.30;;;2.10;99.90;;;;;;5013859;28;20230;-88
2023/03/11 08:54:00;;;;;;;3.78;3.38;;;2.10;99.90;;;;;;5036446;28;20225;-88
2023/03/11 08:56:27;;;;;;;6.47;3.67;;;2.20;99.90;;;;;;5031154;28;20205;-87
2023/03/11 08:58:54;;;;;;;5.28;4.13;;;2.10;99.90;;;;;;5029036;28;20213;-88
2023/03/11 09:01:22;;;;;;;4.90;4.32;;;2.00;99.90;;;;;;5012312;28;20409;-89
2023/03/11 09:03:50;;;;;;;3.70;3.40;;;2.10;99.90;;;;;;5023573;28;20214;-88
2023/03/11 09:06:17;;;;;;;3.00;2.80;;;2.10;99.90;;;;;;5029065;28;20211;-89
2023/03/11 09:08:45;;;;;;;4.30;3.88;;;2.00;99.90;;;;;;5011353;28;20209;-90
2023/03/11 09:11:14;;;;;;;5.35;3.60;;;2.30;99.90;;;;;;5012541;28;20226;-86
2023/03/11 09:13:42;;;;;;;4.22;3.83;;;2.10;99.90;;;;;;5023863;28;20211;-86
2023/03/11 09:16:13;;;;;;;4.80;3.90;;;2.10;99.90;;;;;;5030825;28;20195;-88
2023/03/11 09:18:41;;;;;;;3.65;3.35;;;2.00;99.90;;;;;;5016063;28;20598;-89
2023/03/11 09:21:09;;;;;;;3.95;2.92;;;2.30;99.90;;;;;;5015301;28;20312;-88
2023/03/11 09:23:36;;;;;;;3.15;2.95;;;2.00;99.90;;;;;;5015538;28;20198;-88
2023/03/11 09:26:03;;;;;;;3.70;3.00;;;2.00;99.90;;;;;;5016098;28;20245;-89
2023/03/11 09:28:30;;;;;;;3.25;2.53;;;1.90;99.90;;;;;;5014335;28;20206;-87
2023/03/11 09:31:00;;;;;;;3.58;3.28;;;2.00;99.90;;;;;;5025259;28;20240;-88
2023/03/11 09:33:27;;;;;;;2.60;2.40;;;2.20;99.90;;;;;;5030742;28;20244;-88
2023/03/11 09:35:54;;;;;;;2.80;2.60;;;2.40;99.90;;;;;;5034574;28;20217;-90
2023/03/11 09:38:21;;;;;;;2.60;2.40;;;2.60;99.90;;;;;;5029840;28;20199;-89
2023/03/11 09:41:08;;;;;;;2.50;2.10;;;2.60;99.90;;;;;;5032961;28;20239;-88
2023/03/11 09:43:57;;;;;;;2.40;2.10;;;2.60;99.90;;;;;;5028467;28;20207;-88
2023/03/11 09:46:55;;;;;;;2.55;2.35;;;2.50;99.90;;;;;;5026874;28;20210;-89
2023/03/11 09:49:45;;;;;;;2.72;2.33;;;2.30;99.90;;;;;;5034217;28;20257;-87
2023/03/11 09:52:23;;;;;;;2.60;2.40;;;2.10;99.90;;;;;;5022521;28;20217;-88
2023/03/11 09:54:52;;;;;;;2.08;1.85;;;2.20;99.90;;;;;;5025070;28;20194;-88
2023/03/11 09:57:27;;;;;;;1.70;1.60;;;2.00;99.90;;;;;;5003275;28;20219;-88
2023/03/11 09:59:54;;;;;;;4.47;3.20;;;1.70;99.90;;;;;;5031144;28;20426;-88
2023/03/11 10:05:20;;;;;;;6.20;3.80;;;2.00;99.90;;;;;;5699201;22;20294;-89
2023/03/11 10:10:28;;;;;;;3.67;3.35;;;2.20;99.90;;;;;;5128312;23;20304;-88
2023/03/11 10:13:07;;;;;;;5.57;4.22;;;2.30;99.90;;;;;;5045367;28;20206;-89
2023/03/11 10:16:00;;;;;;;7.53;3.85;;;2.40;99.90;;;;;;5366481;22;20292;-90
2023/03/11 10:18:46;;;;;;;3.90;3.20;;;2.60;99.90;;;;;;5015617;28;20291;-88
2023/03/11 10:21:35;;;;;;;6.68;4.30;;;2.80;99.90;;;;;;5006084;28;20236;-83
2023/03/11 10:24:35;;;;;;;3.42;3.13;;;3.00;99.90;;;;;;5034426;28;20203;-90
2023/03/11 10:27:15;;;;;;;5.90;3.25;;;3.00;99.90;;;;;;5003185;28;20207;-88
2023/03/11 10:30:05;;;;;;;3.42;3.05;;;2.90;99.90;;;;;;5022822;28;20187;-87
2023/03/11 10:32:57;;;;;;;4.38;3.88;;;3.10;99.90;;;;;;5021930;28;20192;-86
2023/03/11 10:35:39;;;;;;;3.05;2.38;;;3.20;99.90;;;;;;5027983;28;20190;-85
2023/03/11 10:38:17;;;;;;;2.97;2.65;;;3.30;99.90;;;;;;5031430;28;20221;-84
2023/03/11 10:40:47;;;;;;;2.80;2.55;;;3.50;99.90;;;;;;5020381;28;20299;-88
2023/03/11 10:43:19;;;;;;;5.22;2.72;;;3.80;99.90;;;;;;5024912;28;20223;-87
2023/03/11 10:45:49;;;;;;;2.70;1.90;;;3.70;99.90;;;;;;5009883;28;20238;-90
2023/03/11 10:48:19;;;;;;;4.00;2.92;;;3.80;99.90;;;;;;5011823;28;20238;-87
2023/03/11 10:50:53;;;;;;;4.03;3.63;;;3.70;99.90;;;;;;5028351;28;20199;-86
2023/03/11 10:53:23;;;;;;;4.05;3.70;;;3.60;99.90;;;;;;5457272;23;21174;-87
2023/03/11 10:55:58;;;;;;;2.78;2.47;;;3.50;99.90;;;;;;5407532;22;20249;-85
2023/03/11 11:03:54;;;;;;;3.17;2.88;;;3.70;99.90;;;;;;5536425;22;20239;-86
2023/03/11 11:06:27;;;;;;;3.67;3.35;;;4.00;99.90;;;;;;5441490;23;20248;-85
2023/03/11 11:09:14;;;;;;;5.97;4.05;;;4.10;99.90;;;;;;5023346;28;20257;-87
2023/03/11 11:16:58;;;;;;;4.22;3.15;;;4.60;99.90;;;;;;5315870;22;20288;-85
2023/03/11 11:19:28;;;;;;;4.05;3.35;;;4.50;99.90;;;;;;5159032;22;20247;-86
2023/03/11 11:22:02;;;;;;;3.05;2.33;;;4.20;99.90;;;;;;5022878;28;20228;-84
2023/03/11 11:24:30;;;;;;;3.90;3.00;;;3.60;99.90;;;;;;5182385;23;20234;-85
2023/03/11 11:27:24;;;;;;;3.30;2.90;;;3.40;99.90;;;;;;5033780;28;20406;-86
2023/03/11 11:30:13;;;;;;;3.95;3.30;;;3.40;99.90;;;;;;5025097;28;20197;-85
2023/03/11 11:32:41;;;;;;;3.53;2.50;;;3.50;99.90;;;;;;5036001;28;20203;-88
2023/03/11 11:35:14;;;;;;;3.78;3.08;;;3.90;99.90;;;;;;5032112;28;20315;-87
2023/03/11 11:37:51;;;;;;;2.70;2.45;;;4.20;99.90;;;;;;5024464;28;20219;-87
2023/03/11 11:40:30;;;;;;;3.63;2.60;;;4.30;99.90;;;;;;5029227;28;20208;-85
2023/03/11 11:43:05;;;;;;;3.35;2.67;;;4.10;99.90;;;;;;5026642;28;20223;-88
2023/03/11 11:45:41;;;;;;;2.58;2.38;;;3.70;99.90;;;;;;5029289;28;20219;-89
2023/03/11 11:48:48;;;;;;;4.85;2.63;;;3.50;99.90;;;;;;5028613;28;20216;-86
2023/03/11 11:51:20;;;;;;;3.10;2.50;;;3.50;99.90;;;;;;5011446;28;20204;-89
2023/03/11 11:54:16;;;;;;;3.53;2.55;;;3.80;99.90;;;;;;5021997;28;20200;-85
2023/03/11 11:56:44;;;;;;;3.72;3.20;;;4.10;99.90;;;;;;5036263;28;20211;-89
2023/03/11 11:59:20;;;;;;;3.60;2.65;;;4.40;99.90;;;;;;5027131;28;20216;-86
2023/03/11 12:02:05;;;;;;;3.70;2.80;;;4.50;99.90;;;;;;5030685;28;20227;-86
2023/03/11 12:04:53;;;;;;;3.17;2.97;;;4.40;99.90;;;;;;5032541;28;20220;-85
2023/03/11 12:07:28;;;;;;;3.58;1.98;;;4.50;99.90;;;;;;5022981;28;20467;-87
2023/03/11 12:10:17;;;;;;;3.08;2.10;;;4.20;99.90;;;;;;5025686;28;20207;-87
2023/03/11 12:13:27;;;;;;;3.00;2.60;;;4.50;99.90;;;;;;5013238;28;20209;-85
2023/03/11 12:15:58;;;;;;;3.00;2.47;;;4.80;99.90;;;;;;5019339;28;20212;-84
2023/03/11 12:18:38;;;;;;;2.85;2.40;;;4.80;99.90;;;;;;5017777;28;20225;-86
2023/03/11 12:21:26;;;;;;;4.78;2.05;;;5.00;99.90;;;;;;5020698;28;20214;-86
2023/03/11 12:24:14;;;;;;;2.50;2.30;;;5.10;99.90;;;;;;5009912;28;20262;-87
2023/03/11 12:26:45;;;;;;;4.18;2.85;;;5.10;99.90;;;;;;5022835;28;20204;-84
2023/03/11 12:29:28;;;;;;;4.93;2.63;;;4.90;99.90;;;;;;5006498;28;20498;-86
2023/03/11 12:31:58;;;;;;;2.05;1.50;;;4.90;99.90;;;;;;5023227;28;20238;-87
2023/03/11 12:34:27;;;;;;;2.13;1.75;;;4.70;99.90;;;;;;5022097;28;20272;-85
2023/03/11 12:36:59;;;;;;;2.53;1.90;;;4.60;99.90;;;;;;5028564;28;20412;-83
2023/03/11 12:39:32;;;;;;;2.03;1.90;;;4.80;99.90;;;;;;5032201;28;20209;-84
2023/03/11 12:42:17;;;;;;;2.85;2.00;;;4.60;99.90;;;;;;5037135;28;20218;-85
2023/03/11 12:44:45;;;;;;;2.35;2.00;;;4.70;99.90;;;;;;5035998;28;20204;-83
2023/03/11 12:47:16;;;;;;;4.70;2.33;;;5.10;99.90;;;;;;5043654;28;20209;-82
2023/03/11 12:49:48;;;;;;;2.38;2.15;;;5.20;99.90;;;;;;5029335;28;20201;-83
2023/03/11 12:52:21;;;;;;;1.90;1.67;;;5.20;99.90;;;;;;5006666;28;20267;-86
2023/03/11 12:55:17;;;;;;;2.30;1.70;;;5.20;99.90;;;;;;5019093;28;20562;-83
2023/03/11 12:57:47;;;;;;;2.67;2.45;;;5.00;99.90;;;;;;5022523;28;20571;-83
2023/03/11 13:00:21;;;;;;;2.22;2.03;;;4.30;99.90;;;;;;5023033;28;20219;-86
2023/03/11 13:03:19;;;;;;;2.50;2.30;;;3.40;99.90;;;;;;5012511;28;20234;-86
2023/03/11 13:05:49;;;;;;;3.10;2.00;;;3.30;99.90;;;;;;5019440;28;20230;-85
2023/03/11 13:08:23;;;;;;;2.83;2.63;;;3.40;99.90;;;;;;5026694;28;20250;-85
2023/03/11 13:10:52;;;;;;;3.00;2.10;;;3.70;99.90;;;;;;5011325;28;20504;-87
2023/03/11 13:13:41;;;;;;;3.90;2.17;;;4.00;99.90;;;;;;5019375;28;20208;-83
2023/03/11 13:16:28;;;;;;;5.07;3.20;;;4.10;99.90;;;;;;4998731;28;20215;-84
2023/03/11 13:19:24;;;;;;;2.63;2.35;;;4.10;99.90;;;;;;5004094;28;20306;-87
2023/03/11 13:21:58;;;;;;;3.97;3.17;;;4.00;99.90;;;;;;5011597;28;20242;-82
2023/03/11 13:24:25;;;;;;;3.72;2.47;;;4.10;99.90;;;;;;5016831;28;20220;-82
2023/03/11 13:26:58;;;;;;;4.00;2.60;;;4.30;99.90;;;;;;5019844;28;20231;-84
2023/03/11 13:30:01;;;;;;;3.28;2.40;;;4.30;99.90;;;;;;4999613;28;20219;-84
2023/03/11 13:32:28;;;;;;;2.30;2.00;;;4.40;99.90;;;;;;5016413;28;20416;-84
2023/03/11 13:35:04;;;;;;;2.95;2.75;;;4.10;99.90;;;;;;5018074;28;20207;-82
2023/03/11 13:37:49;;;;;;;5.88;2.78;;;3.90;99.90;;;;;;5017187;28;20249;-84